PWSweather.com
Personal Weather Stations
Station Observations

ChardChardGB

Lat: 50.877408, Lon: -2.94964741

Elevation: 341

Station Type: WS3083

http://www.merriott-astro.co.uk/weather/index.htm

High Low Average
Temperature 53.4°F11.9°C 47.8°F8.8°C 50.6°F10.3°C
Dew Point 49.5°F9.7°C 45.7°F7.6°C 47.8°F8.8°C
Winds 12.6 mph 20.3 kmh 5.2 mph 8.4 kmh 9.0 mph ENE14.5 kmh ENE
Wind Gusts 19.7 mph31.7 kmh 6.0 mph9.7 kmh 12.0 mph19.3 kmh
Humidity 97% 81% 90%
Pressure 29.85 in1010.8 mb 29.75 in1007.5 mb -
Precipitation 0.30 in7.6 mm - -
Hour Temp Dew Point Humidity Winds Wind Gusts Pressure Precip Precip Rate Daily Precip Total
01:00 AM 48.2°F9.0°C 47.1°F8.4°C 96% 11.4 mph N18.3 kmh N 15.2 mph24.5 kmh 29.80 in1009.1 mb 0.09 in2.3 mm 0.00 in0.0 mm 0.09 in2.3 mm
01:10 AM 48.2°F9.0°C 47.1°F8.4°C 96% 10.5 mph NW16.9 kmh NW 13.0 mph20.9 kmh 29.80 in1009.1 mb 0.11 in2.8 mm 0.12 in3.0 mm 0.12 in3.0 mm
01:20 AM 48.0°F8.9°C 46.9°F8.3°C 96% 10.1 mph NNW16.3 kmh NNW 13.6 mph21.9 kmh 29.80 in1009.1 mb 0.12 in3.0 mm 0.06 in1.5 mm 0.14 in3.6 mm
01:30 AM 48.0°F8.9°C 46.9°F8.3°C 96% 8.7 mph NW14.0 kmh NW 12.1 mph19.5 kmh 29.80 in1009.1 mb 0.12 in3.0 mm 0.00 in0.0 mm 0.15 in3.8 mm
01:40 AM 47.8°F8.8°C 46.8°F8.2°C 96% 9.1 mph NNW14.6 kmh NNW 12.1 mph19.5 kmh 29.79 in1008.8 mb 0.09 in2.3 mm 0.00 in0.0 mm 0.15 in3.8 mm
01:50 AM 47.8°F8.8°C 46.8°F8.2°C 96% 8.6 mph N13.8 kmh N 12.1 mph19.5 kmh 29.78 in1008.5 mb 0.09 in2.3 mm 0.00 in0.0 mm 0.15 in3.8 mm
02:00 AM 48.0°F8.9°C 46.9°F8.3°C 96% 8.6 mph NNE13.8 kmh NNE 13.0 mph20.9 kmh 29.79 in1008.8 mb 0.07 in1.8 mm 0.00 in0.0 mm 0.17 in4.3 mm
02:10 AM 48.2°F9.0°C 47.1°F8.4°C 96% 7.9 mph NNW12.7 kmh NNW 9.8 mph15.8 kmh 29.78 in1008.5 mb 0.05 in1.3 mm 0.00 in0.0 mm 0.17 in4.3 mm
02:20 AM 48.2°F9.0°C 47.1°F8.4°C 96% 8.3 mph NE13.4 kmh NE 12.1 mph19.5 kmh 29.78 in1008.5 mb 0.02 in0.5 mm 0.00 in0.0 mm 0.17 in4.3 mm
02:30 AM 48.2°F9.0°C 47.1°F8.4°C 96% 10.9 mph N17.5 kmh N 15.2 mph24.5 kmh 29.78 in1008.5 mb 0.02 in0.5 mm 0.00 in0.0 mm 0.18 in4.6 mm
02:40 AM 48.4°F9.1°C 47.3°F8.5°C 96% 11.3 mph NNW18.2 kmh NNW 15.2 mph24.5 kmh 29.77 in1008.1 mb 0.02 in0.5 mm 0.00 in0.0 mm 0.18 in4.6 mm
02:50 AM 48.4°F9.1°C 47.3°F8.5°C 96% 11.1 mph ENE17.9 kmh ENE 16.8 mph27.0 kmh 29.77 in1008.1 mb 0.02 in0.5 mm 0.00 in0.0 mm 0.18 in4.6 mm
03:00 AM 48.4°F9.1°C 47.0°F8.3°C 95% 10.6 mph NE17.1 kmh NE 13.6 mph21.9 kmh 29.77 in1008.1 mb 0.01 in0.3 mm 0.00 in0.0 mm 0.18 in4.6 mm
03:10 AM 48.4°F9.1°C 47.0°F8.3°C 95% 8.9 mph ENE14.3 kmh ENE 13.0 mph20.9 kmh 29.77 in1008.1 mb 0.02 in0.5 mm 0.06 in1.5 mm 0.19 in4.8 mm
03:20 AM 48.4°F9.1°C 47.0°F8.3°C 95% 8.5 mph N13.7 kmh N 12.1 mph19.5 kmh 29.77 in1008.1 mb 0.02 in0.5 mm 0.00 in0.0 mm 0.19 in4.8 mm
03:30 AM 48.4°F9.1°C 47.0°F8.3°C 95% 8.6 mph NNE13.8 kmh NNE 11.4 mph18.3 kmh 29.76 in1007.8 mb 0.01 in0.3 mm 0.00 in0.0 mm 0.19 in4.8 mm
03:40 AM 48.6°F9.2°C 46.9°F8.3°C 94% 7.7 mph N12.4 kmh N 9.8 mph15.8 kmh 29.76 in1007.8 mb 0.01 in0.3 mm 0.00 in0.0 mm 0.19 in4.8 mm
03:50 AM 48.6°F9.2°C 46.9°F8.3°C 94% 8.2 mph NE13.2 kmh NE 15.2 mph24.5 kmh 29.76 in1007.8 mb 0.02 in0.5 mm 0.06 in1.5 mm 0.20 in5.1 mm
04:00 AM 48.6°F9.2°C 46.9°F8.3°C 94% 8.1 mph NE13.0 kmh NE 14.5 mph23.3 kmh 29.76 in1007.8 mb 0.04 in1.0 mm 0.02 in0.5 mm 0.21 in5.3 mm
04:10 AM 48.6°F9.2°C 46.9°F8.3°C 94% 9.8 mph N15.8 kmh N 14.5 mph23.3 kmh 29.75 in1007.5 mb 0.05 in1.3 mm 0.06 in1.5 mm 0.24 in6.1 mm
04:20 AM 48.6°F9.2°C 47.2°F8.4°C 95% 8.3 mph NE13.4 kmh NE 10.7 mph17.2 kmh 29.76 in1007.8 mb 0.05 in1.3 mm 0.00 in0.0 mm 0.24 in6.1 mm
04:30 AM 48.7°F9.3°C 47.4°F8.6°C 95% 9.1 mph NE14.6 kmh NE 10.7 mph17.2 kmh 29.76 in1007.8 mb 0.05 in1.3 mm 0.00 in0.0 mm 0.24 in6.1 mm
04:40 AM 48.7°F9.3°C 47.4°F8.6°C 95% 7.7 mph NE12.4 kmh NE 10.7 mph17.2 kmh 29.75 in1007.5 mb 0.05 in1.3 mm 0.00 in0.0 mm 0.24 in6.1 mm
04:50 AM 48.9°F9.4°C 47.6°F8.7°C 95% 8.2 mph N13.2 kmh N 9.8 mph15.8 kmh 29.76 in1007.8 mb 0.04 in1.0 mm 0.00 in0.0 mm 0.24 in6.1 mm
05:00 AM 48.9°F9.4°C 47.6°F8.7°C 95% 7.0 mph N11.3 kmh N 11.4 mph18.3 kmh 29.76 in1007.8 mb 0.02 in0.5 mm 0.00 in0.0 mm 0.24 in6.1 mm
05:20 AM 48.9°F9.4°C 47.8°F8.8°C 96% 8.7 mph N14.0 kmh N 11.4 mph18.3 kmh 29.76 in1007.8 mb 0.00 in0.0 mm 0.00 in0.0 mm 0.24 in6.1 mm
05:30 AM 49.1°F9.5°C 48.0°F8.9°C 96% 8.4 mph NNE13.5 kmh NNE 10.7 mph17.2 kmh 29.75 in1007.5 mb 0.00 in0.0 mm 0.00 in0.0 mm 0.24 in6.1 mm
05:40 AM 49.1°F9.5°C 48.0°F8.9°C 96% 7.7 mph NE12.4 kmh NE 11.4 mph18.3 kmh 29.76 in1007.8 mb 0.01 in0.3 mm 0.06 in1.5 mm 0.25 in6.4 mm
05:50 AM 49.1°F9.5°C 48.0°F8.9°C 96% 8.9 mph NE14.3 kmh NE 12.1 mph19.5 kmh 29.75 in1007.5 mb 0.02 in0.5 mm 0.06 in1.5 mm 0.26 in6.6 mm
06:00 AM 49.1°F9.5°C 48.0°F8.9°C 96% 9.0 mph NE14.5 kmh NE 11.4 mph18.3 kmh 29.76 in1007.8 mb 0.02 in0.5 mm 0.00 in0.0 mm 0.26 in6.6 mm
06:10 AM 49.1°F9.5°C 48.0°F8.9°C 96% 8.7 mph NE14.0 kmh NE 13.0 mph20.9 kmh 29.76 in1007.8 mb 0.02 in0.5 mm 0.00 in0.0 mm 0.26 in6.6 mm
06:20 AM 49.1°F9.5°C 48.0°F8.9°C 96% 8.9 mph NE14.3 kmh NE 12.1 mph19.5 kmh 29.76 in1007.8 mb 0.02 in0.5 mm 0.00 in0.0 mm 0.26 in6.6 mm
06:30 AM 49.3°F9.6°C 48.2°F9.0°C 96% 8.5 mph E13.7 kmh E 12.1 mph19.5 kmh 29.76 in1007.8 mb 0.04 in1.0 mm 0.12 in3.0 mm 0.27 in6.9 mm
06:40 AM 49.3°F9.6°C 48.2°F9.0°C 96% 9.8 mph NNE15.8 kmh NNE 12.1 mph19.5 kmh 29.76 in1007.8 mb 0.02 in0.5 mm 0.00 in0.0 mm 0.27 in6.9 mm
06:50 AM 49.3°F9.6°C 48.5°F9.2°C 97% 8.4 mph ENE13.5 kmh ENE 11.4 mph18.3 kmh 29.76 in1007.8 mb 0.01 in0.3 mm 0.00 in0.0 mm 0.27 in6.9 mm
07:00 AM 49.5°F9.7°C 48.6°F9.2°C 97% 8.2 mph E13.2 kmh E 10.7 mph17.2 kmh 29.76 in1007.8 mb 0.01 in0.3 mm 0.00 in0.0 mm 0.27 in6.9 mm
07:10 AM 49.6°F9.8°C 48.8°F9.3°C 97% 8.0 mph NNE12.9 kmh NNE 12.1 mph19.5 kmh 29.76 in1007.8 mb 0.01 in0.3 mm 0.00 in0.0 mm 0.27 in6.9 mm
07:20 AM 49.6°F9.8°C 48.8°F9.3°C 97% 9.0 mph NE14.5 kmh NE 13.6 mph21.9 kmh 29.77 in1008.1 mb 0.01 in0.3 mm 0.00 in0.0 mm 0.27 in6.9 mm
07:30 AM 49.8°F9.9°C 49.0°F9.4°C 97% 8.0 mph NE12.9 kmh NE 11.4 mph18.3 kmh 29.76 in1007.8 mb 0.00 in0.0 mm 0.00 in0.0 mm 0.27 in6.9 mm
07:40 AM 50.0°F10.0°C 49.2°F9.6°C 97% 8.0 mph ENE12.9 kmh ENE 11.4 mph18.3 kmh 29.76 in1007.8 mb 0.00 in0.0 mm 0.00 in0.0 mm 0.27 in6.9 mm
07:50 AM 50.0°F10.0°C 49.2°F9.6°C 97% 7.4 mph ENE11.9 kmh ENE 10.7 mph17.2 kmh 29.76 in1007.8 mb 0.00 in0.0 mm 0.00 in0.0 mm 0.27 in6.9 mm
08:00 AM 50.0°F10.0°C 49.2°F9.6°C 97% 8.2 mph NE13.2 kmh NE 11.4 mph18.3 kmh 29.77 in1008.1 mb 0.00 in0.0 mm 0.00 in0.0 mm 0.27 in6.9 mm
08:10 AM 50.2°F10.1°C 49.4°F9.7°C 97% 10.6 mph N17.1 kmh N 13.6 mph21.9 kmh 29.77 in1008.1 mb 0.00 in0.0 mm 0.00 in0.0 mm 0.27 in6.9 mm
08:20 AM 50.0°F10.0°C 49.2°F9.6°C 97% 10.7 mph ENE17.2 kmh ENE 14.5 mph23.3 kmh 29.78 in1008.5 mb 0.01 in0.3 mm 0.06 in1.5 mm 0.28 in7.1 mm
08:30 AM 50.2°F10.1°C 49.1°F9.5°C 96% 10.0 mph NE16.1 kmh NE 15.2 mph24.5 kmh 29.78 in1008.5 mb 0.02 in0.5 mm 0.06 in1.5 mm 0.30 in7.6 mm
08:40 AM 50.4°F10.2°C 49.3°F9.6°C 96% 9.9 mph ENE15.9 kmh ENE 13.0 mph20.9 kmh 29.77 in1008.1 mb 0.02 in0.5 mm 0.00 in0.0 mm 0.30 in7.6 mm
08:50 AM 50.5°F10.3°C 49.4°F9.7°C 96% 11.2 mph NE18.0 kmh NE 13.6 mph21.9 kmh 29.78 in1008.5 mb 0.02 in0.5 mm 0.00 in0.0 mm 0.30 in7.6 mm
09:00 AM 50.7°F10.4°C 49.3°F9.6°C 95% 9.6 mph ENE15.4 kmh ENE 13.6 mph21.9 kmh 29.78 in1008.5 mb 0.02 in0.5 mm 0.00 in0.0 mm 0.30 in7.6 mm
09:10 AM 50.9°F10.5°C 49.5°F9.7°C 95% 9.2 mph NE14.8 kmh NE 13.0 mph20.9 kmh 29.78 in1008.5 mb 0.02 in0.5 mm 0.00 in0.0 mm 0.30 in7.6 mm
09:20 AM 51.1°F10.6°C 49.4°F9.7°C 94% 9.6 mph NE15.4 kmh NE 13.6 mph21.9 kmh 29.78 in1008.5 mb 0.01 in0.3 mm 0.00 in0.0 mm 0.30 in7.6 mm
09:30 AM 51.1°F10.6°C 49.1°F9.5°C 93% 9.4 mph NE15.1 kmh NE 13.0 mph20.9 kmh 29.78 in1008.5 mb 0.00 in0.0 mm 0.00 in0.0 mm 0.30 in7.6 mm
09:40 AM 51.1°F10.6°C 48.8°F9.3°C 92% 9.7 mph NE15.6 kmh NE 12.1 mph19.5 kmh 29.78 in1008.5 mb 0.00 in0.0 mm 0.00 in0.0 mm 0.30 in7.6 mm
09:50 AM 51.4°F10.8°C 48.9°F9.4°C 91% 12.4 mph NNE20.0 kmh NNE 16.8 mph27.0 kmh 29.78 in1008.5 mb 0.00 in0.0 mm 0.00 in0.0 mm 0.30 in7.6 mm
10:00 AM 51.4°F10.8°C 48.9°F9.4°C 91% 9.9 mph NE15.9 kmh NE 16.8 mph27.0 kmh 29.78 in1008.5 mb 0.00 in0.0 mm 0.00 in0.0 mm 0.30 in7.6 mm
10:10 AM 51.4°F10.8°C 48.6°F9.2°C 90% 8.8 mph N14.2 kmh N 13.0 mph20.9 kmh 29.79 in1008.8 mb 0.00 in0.0 mm 0.00 in0.0 mm 0.30 in7.6 mm
10:20 AM 51.6°F10.9°C 48.8°F9.3°C 90% 10.6 mph NE17.1 kmh NE 13.0 mph20.9 kmh 29.79 in1008.8 mb 0.00 in0.0 mm 0.00 in0.0 mm 0.30 in7.6 mm
10:30 AM 51.6°F10.9°C 48.8°F9.3°C 90% 8.0 mph NNE12.9 kmh NNE 10.7 mph17.2 kmh 29.79 in1008.8 mb 0.00 in0.0 mm 0.00 in0.0 mm 0.30 in7.6 mm
10:40 AM 51.8°F11.0°C 49.0°F9.4°C 90% 9.9 mph NE15.9 kmh NE 13.0 mph20.9 kmh 29.79 in1008.8 mb 0.00 in0.0 mm 0.00 in0.0 mm 0.30 in7.6 mm
10:50 AM 51.8°F11.0°C 49.0°F9.4°C 90% 10.2 mph ENE16.4 kmh ENE 13.6 mph21.9 kmh 29.80 in1009.1 mb 0.00 in0.0 mm 0.00 in0.0 mm 0.30 in7.6 mm
11:00 AM 51.8°F11.0°C 48.7°F9.3°C 89% 8.8 mph NE14.2 kmh NE 13.6 mph21.9 kmh 29.80 in1009.1 mb 0.00 in0.0 mm 0.00 in0.0 mm 0.30 in7.6 mm
11:10 AM 52.0°F11.1°C 48.8°F9.3°C 89% 9.3 mph NE15.0 kmh NE 13.0 mph20.9 kmh 29.80 in1009.1 mb 0.00 in0.0 mm 0.00 in0.0 mm 0.30 in7.6 mm
11:20 AM 52.0°F11.1°C 48.8°F9.3°C 89% 9.2 mph NE14.8 kmh NE 12.1 mph19.5 kmh 29.80 in1009.1 mb 0.00 in0.0 mm 0.00 in0.0 mm 0.30 in7.6 mm
11:30 AM 52.0°F11.1°C 48.8°F9.3°C 89% 9.8 mph NE15.8 kmh NE 12.1 mph19.5 kmh 29.80 in1009.1 mb 0.00 in0.0 mm 0.00 in0.0 mm 0.30 in7.6 mm
11:40 AM 52.2°F11.2°C 48.7°F9.3°C 88% 10.9 mph NE17.5 kmh NE 14.5 mph23.3 kmh 29.81 in1009.5 mb 0.00 in0.0 mm 0.00 in0.0 mm 0.30 in7.6 mm
11:50 AM 52.3°F11.3°C 48.9°F9.4°C 88% 9.8 mph NE15.8 kmh NE 13.6 mph21.9 kmh 29.81 in1009.5 mb 0.00 in0.0 mm 0.00 in0.0 mm 0.30 in7.6 mm
12:00 PM 52.3°F11.3°C 48.9°F9.4°C 88% 9.8 mph NE15.8 kmh NE 13.6 mph21.9 kmh 29.80 in1009.1 mb 0.00 in0.0 mm 0.00 in0.0 mm 0.30 in7.6 mm
12:10 PM 52.5°F11.4°C 48.8°F9.3°C 87% 8.3 mph NE13.4 kmh NE 12.1 mph19.5 kmh 29.81 in1009.5 mb 0.00 in0.0 mm 0.00 in0.0 mm 0.30 in7.6 mm
12:20 PM 52.5°F11.4°C 48.8°F9.3°C 87% 9.1 mph NE14.6 kmh NE 11.4 mph18.3 kmh 29.81 in1009.5 mb 0.00 in0.0 mm 0.00 in0.0 mm 0.30 in7.6 mm
12:30 PM 52.5°F11.4°C 48.8°F9.3°C 87% 9.3 mph NE15.0 kmh NE 13.0 mph20.9 kmh 29.81 in1009.5 mb 0.00 in0.0 mm 0.00 in0.0 mm 0.30 in7.6 mm
12:40 PM 52.5°F11.4°C 48.8°F9.3°C 87% 8.5 mph NE13.7 kmh NE 9.8 mph15.8 kmh 29.82 in1009.8 mb 0.00 in0.0 mm 0.00 in0.0 mm 0.30 in7.6 mm
12:50 PM 52.5°F11.4°C 48.8°F9.3°C 87% 9.2 mph ENE14.8 kmh ENE 12.1 mph19.5 kmh 29.81 in1009.5 mb 0.00 in0.0 mm 0.00 in0.0 mm 0.30 in7.6 mm
01:00 PM 52.7°F11.5°C 48.9°F9.4°C 87% 8.5 mph NE13.7 kmh NE 10.7 mph17.2 kmh 29.82 in1009.8 mb 0.00 in0.0 mm 0.00 in0.0 mm 0.30 in7.6 mm
01:10 PM 52.9°F11.6°C 48.8°F9.3°C 86% 10.5 mph NNE16.9 kmh NNE 13.6 mph21.9 kmh 29.82 in1009.8 mb 0.00 in0.0 mm 0.00 in0.0 mm 0.30 in7.6 mm
01:20 PM 52.9°F11.6°C 48.8°F9.3°C 86% 9.7 mph ENE15.6 kmh ENE 17.4 mph28.0 kmh 29.82 in1009.8 mb 0.00 in0.0 mm 0.00 in0.0 mm 0.30 in7.6 mm
01:30 PM 53.1°F11.7°C 48.7°F9.3°C 85% 8.4 mph NE13.5 kmh NE 13.0 mph20.9 kmh 29.82 in1009.8 mb 0.00 in0.0 mm 0.00 in0.0 mm 0.30 in7.6 mm
01:40 PM 53.2°F11.8°C 48.9°F9.4°C 85% 9.9 mph NE15.9 kmh NE 13.6 mph21.9 kmh 29.82 in1009.8 mb 0.00 in0.0 mm 0.00 in0.0 mm 0.30 in7.6 mm
01:50 PM 53.2°F11.8°C 48.5°F9.2°C 84% 11.0 mph NE17.7 kmh NE 14.5 mph23.3 kmh 29.83 in1010.2 mb 0.00 in0.0 mm 0.00 in0.0 mm 0.30 in7.6 mm
02:00 PM 53.4°F11.9°C 48.7°F9.3°C 84% 7.7 mph NNE12.4 kmh NNE 11.4 mph18.3 kmh 29.83 in1010.2 mb 0.00 in0.0 mm 0.00 in0.0 mm 0.30 in7.6 mm
02:10 PM 53.4°F11.9°C 48.7°F9.3°C 84% 10.1 mph NE16.3 kmh NE 13.0 mph20.9 kmh 29.83 in1010.2 mb 0.00 in0.0 mm 0.00 in0.0 mm 0.30 in7.6 mm
02:20 PM 53.2°F11.8°C 48.5°F9.2°C 84% 9.6 mph NE15.4 kmh NE 11.4 mph18.3 kmh 29.83 in1010.2 mb 0.00 in0.0 mm 0.00 in0.0 mm 0.30 in7.6 mm
02:30 PM 53.2°F11.8°C 48.5°F9.2°C 84% 12.6 mph NE20.3 kmh NE 17.4 mph28.0 kmh 29.83 in1010.2 mb 0.00 in0.0 mm 0.00 in0.0 mm 0.30 in7.6 mm
02:40 PM 53.2°F11.8°C 48.5°F9.2°C 84% 12.1 mph NE19.5 kmh NE 15.9 mph25.6 kmh 29.83 in1010.2 mb 0.00 in0.0 mm 0.00 in0.0 mm 0.30 in7.6 mm
02:50 PM 53.4°F11.9°C 48.7°F9.3°C 84% 8.2 mph ENE13.2 kmh ENE 9.8 mph15.8 kmh 29.83 in1010.2 mb 0.00 in0.0 mm 0.00 in0.0 mm 0.30 in7.6 mm
03:00 PM 53.4°F11.9°C 48.7°F9.3°C 84% 9.0 mph NE14.5 kmh NE 9.8 mph15.8 kmh 29.83 in1010.2 mb 0.00 in0.0 mm 0.00 in0.0 mm 0.30 in7.6 mm
03:10 PM 53.4°F11.9°C 49.0°F9.4°C 85% 10.4 mph NE16.7 kmh NE 15.2 mph24.5 kmh 29.83 in1010.2 mb 0.00 in0.0 mm 0.00 in0.0 mm 0.30 in7.6 mm
03:20 PM 53.2°F11.8°C 48.9°F9.4°C 85% 10.1 mph NE16.3 kmh NE 15.9 mph25.6 kmh 29.82 in1009.8 mb 0.00 in0.0 mm 0.00 in0.0 mm 0.30 in7.6 mm
03:30 PM 53.2°F11.8°C 48.5°F9.2°C 84% 11.2 mph NNE18.0 kmh NNE 14.5 mph23.3 kmh 29.83 in1010.2 mb 0.00 in0.0 mm 0.00 in0.0 mm 0.30 in7.6 mm
03:40 PM 53.2°F11.8°C 47.9°F8.8°C 82% 11.7 mph ENE18.8 kmh ENE 14.5 mph23.3 kmh 29.83 in1010.2 mb 0.00 in0.0 mm 0.00 in0.0 mm 0.30 in7.6 mm
03:50 PM 53.2°F11.8°C 47.6°F8.7°C 81% 10.4 mph NE16.7 kmh NE 14.5 mph23.3 kmh 29.83 in1010.2 mb 0.00 in0.0 mm 0.00 in0.0 mm 0.30 in7.6 mm
04:00 PM 53.1°F11.7°C 48.0°F8.9°C 83% 8.8 mph ENE14.2 kmh ENE 13.0 mph20.9 kmh 29.83 in1010.2 mb 0.00 in0.0 mm 0.00 in0.0 mm 0.30 in7.6 mm
04:10 PM 52.5°F11.4°C 48.1°F8.9°C 85% 9.3 mph NE15.0 kmh NE 13.0 mph20.9 kmh 29.83 in1010.2 mb 0.00 in0.0 mm 0.00 in0.0 mm 0.30 in7.6 mm
04:20 PM 52.5°F11.4°C 48.5°F9.2°C 86% 9.7 mph ENE15.6 kmh ENE 13.0 mph20.9 kmh 29.83 in1010.2 mb 0.00 in0.0 mm 0.00 in0.0 mm 0.30 in7.6 mm
04:30 PM 52.3°F11.3°C 48.3°F9.1°C 86% 10.8 mph SE17.4 kmh SE 13.6 mph21.9 kmh 29.83 in1010.2 mb 0.00 in0.0 mm 0.00 in0.0 mm 0.30 in7.6 mm
04:40 PM 52.3°F11.3°C 48.3°F9.1°C 86% 12.2 mph E19.6 kmh E 19.7 mph31.7 kmh 29.83 in1010.2 mb 0.00 in0.0 mm 0.00 in0.0 mm 0.30 in7.6 mm
04:50 PM 52.3°F11.3°C 48.0°F8.9°C 85% 9.9 mph ENE15.9 kmh ENE 13.0 mph20.9 kmh 29.82 in1009.8 mb 0.00 in0.0 mm 0.00 in0.0 mm 0.30 in7.6 mm
05:00 PM 52.2°F11.2°C 47.8°F8.8°C 85% 10.2 mph ENE16.4 kmh ENE 13.6 mph21.9 kmh 29.83 in1010.2 mb 0.00 in0.0 mm 0.00 in0.0 mm 0.30 in7.6 mm
05:10 PM 51.8°F11.0°C 48.1°F8.9°C 87% 9.4 mph NE15.1 kmh NE 11.4 mph18.3 kmh 29.83 in1010.2 mb 0.00 in0.0 mm 0.00 in0.0 mm 0.30 in7.6 mm
05:20 PM 51.4°F10.8°C 48.3°F9.1°C 89% 8.4 mph NE13.5 kmh NE 11.4 mph18.3 kmh 29.84 in1010.5 mb 0.00 in0.0 mm 0.00 in0.0 mm 0.30 in7.6 mm
05:30 PM 51.3°F10.7°C 48.4°F9.1°C 90% 7.9 mph NE12.7 kmh NE 9.8 mph15.8 kmh 29.84 in1010.5 mb 0.00 in0.0 mm 0.00 in0.0 mm 0.30 in7.6 mm
05:40 PM 51.1°F10.6°C 48.5°F9.2°C 91% 9.2 mph NE14.8 kmh NE 11.4 mph18.3 kmh 29.84 in1010.5 mb 0.00 in0.0 mm 0.00 in0.0 mm 0.30 in7.6 mm
05:50 PM 50.9°F10.5°C 48.4°F9.1°C 91% 7.2 mph NNE11.6 kmh NNE 9.2 mph14.8 kmh 29.84 in1010.5 mb 0.00 in0.0 mm 0.00 in0.0 mm 0.30 in7.6 mm
06:00 PM 50.9°F10.5°C 48.4°F9.1°C 91% 7.2 mph NNE11.6 kmh NNE 10.7 mph17.2 kmh 29.85 in1010.8 mb 0.00 in0.0 mm 0.00 in0.0 mm 0.30 in7.6 mm
06:10 PM 50.5°F10.3°C 48.0°F8.9°C 91% 7.7 mph NNW12.4 kmh NNW 13.0 mph20.9 kmh 29.84 in1010.5 mb 0.00 in0.0 mm 0.00 in0.0 mm 0.30 in7.6 mm
06:20 PM 50.4°F10.2°C 47.8°F8.8°C 91% 7.9 mph NE12.7 kmh NE 13.0 mph20.9 kmh 29.84 in1010.5 mb 0.00 in0.0 mm 0.00 in0.0 mm 0.30 in7.6 mm
06:30 PM 50.4°F10.2°C 47.8°F8.8°C 91% 7.5 mph NNE12.1 kmh NNE 10.7 mph17.2 kmh 29.85 in1010.8 mb 0.00 in0.0 mm 0.00 in0.0 mm 0.30 in7.6 mm
06:40 PM 50.5°F10.3°C 48.0°F8.9°C 91% 7.9 mph ENE12.7 kmh ENE 10.7 mph17.2 kmh 29.85 in1010.8 mb 0.00 in0.0 mm 0.00 in0.0 mm 0.30 in7.6 mm
06:50 PM 50.7°F10.4°C 48.2°F9.0°C 91% 8.5 mph N13.7 kmh N 10.7 mph17.2 kmh 29.85 in1010.8 mb 0.00 in0.0 mm 0.00 in0.0 mm 0.30 in7.6 mm
07:00 PM 50.7°F10.4°C 47.9°F8.8°C 90% 9.5 mph NE15.3 kmh NE 13.0 mph20.9 kmh 29.85 in1010.8 mb 0.00 in0.0 mm 0.00 in0.0 mm 0.30 in7.6 mm
07:10 PM 50.7°F10.4°C 47.3°F8.5°C 88% 7.0 mph ENE11.3 kmh ENE 11.4 mph18.3 kmh 29.84 in1010.5 mb 0.00 in0.0 mm 0.00 in0.0 mm 0.30 in7.6 mm
07:20 PM 50.5°F10.3°C 47.1°F8.4°C 88% 7.6 mph NE12.2 kmh NE 10.7 mph17.2 kmh 29.84 in1010.5 mb 0.00 in0.0 mm 0.00 in0.0 mm 0.30 in7.6 mm
07:30 PM 50.5°F10.3°C 47.1°F8.4°C 88% 8.7 mph NE14.0 kmh NE 11.4 mph18.3 kmh 29.84 in1010.5 mb 0.00 in0.0 mm 0.00 in0.0 mm 0.30 in7.6 mm
07:40 PM 50.5°F10.3°C 46.8°F8.2°C 87% 9.2 mph NE14.8 kmh NE 13.0 mph20.9 kmh 29.84 in1010.5 mb 0.00 in0.0 mm 0.00 in0.0 mm 0.30 in7.6 mm
07:50 PM 50.5°F10.3°C 46.5°F8.1°C 86% 9.9 mph ENE15.9 kmh ENE 13.0 mph20.9 kmh 29.84 in1010.5 mb 0.00 in0.0 mm 0.00 in0.0 mm 0.30 in7.6 mm
08:00 PM 50.4°F10.2°C 46.3°F7.9°C 86% 6.5 mph N10.5 kmh N 7.6 mph12.2 kmh 29.84 in1010.5 mb 0.00 in0.0 mm 0.00 in0.0 mm 0.30 in7.6 mm
08:10 PM 50.4°F10.2°C 46.6°F8.1°C 87% 7.3 mph NE11.7 kmh NE 10.7 mph17.2 kmh 29.84 in1010.5 mb 0.00 in0.0 mm 0.00 in0.0 mm 0.30 in7.6 mm
08:20 PM 50.2°F10.1°C 46.8°F8.2°C 88% 7.8 mph NNE12.6 kmh NNE 10.7 mph17.2 kmh 29.84 in1010.5 mb 0.00 in0.0 mm 0.00 in0.0 mm 0.30 in7.6 mm
08:30 PM 50.2°F10.1°C 47.1°F8.4°C 89% 6.7 mph NE10.8 kmh NE 9.2 mph14.8 kmh 29.84 in1010.5 mb 0.00 in0.0 mm 0.00 in0.0 mm 0.30 in7.6 mm
08:40 PM 50.2°F10.1°C 46.8°F8.2°C 88% 7.3 mph NE11.7 kmh NE 9.8 mph15.8 kmh 29.85 in1010.8 mb 0.00 in0.0 mm 0.00 in0.0 mm 0.30 in7.6 mm
08:50 PM 50.2°F10.1°C 46.5°F8.1°C 87% 9.1 mph NNE14.6 kmh NNE 11.4 mph18.3 kmh 29.84 in1010.5 mb 0.00 in0.0 mm 0.00 in0.0 mm 0.30 in7.6 mm
09:00 PM 50.2°F10.1°C 46.2°F7.9°C 86% 8.0 mph NNE12.9 kmh NNE 9.8 mph15.8 kmh 29.84 in1010.5 mb 0.00 in0.0 mm 0.00 in0.0 mm 0.30 in7.6 mm
09:10 PM 50.2°F10.1°C 45.9°F7.7°C 85% 8.9 mph NE14.3 kmh NE 10.7 mph17.2 kmh 29.84 in1010.5 mb 0.00 in0.0 mm 0.00 in0.0 mm 0.30 in7.6 mm
09:20 PM 50.2°F10.1°C 45.9°F7.7°C 85% 8.7 mph NE14.0 kmh NE 11.4 mph18.3 kmh 29.84 in1010.5 mb 0.00 in0.0 mm 0.00 in0.0 mm 0.30 in7.6 mm
09:30 PM 50.2°F10.1°C 45.9°F7.7°C 85% 7.9 mph NE12.7 kmh NE 9.8 mph15.8 kmh 29.84 in1010.5 mb 0.00 in0.0 mm 0.00 in0.0 mm 0.30 in7.6 mm
09:40 PM 50.2°F10.1°C 45.9°F7.7°C 85% 8.2 mph NE13.2 kmh NE 10.7 mph17.2 kmh 29.84 in1010.5 mb 0.00 in0.0 mm 0.00 in0.0 mm 0.30 in7.6 mm
09:50 PM 50.2°F10.1°C 45.9°F7.7°C 85% 7.4 mph N11.9 kmh N 9.8 mph15.8 kmh 29.84 in1010.5 mb 0.00 in0.0 mm 0.00 in0.0 mm 0.30 in7.6 mm
10:00 PM 50.0°F10.0°C 45.7°F7.6°C 85% 7.0 mph NE11.3 kmh NE 9.8 mph15.8 kmh 29.84 in1010.5 mb 0.00 in0.0 mm 0.00 in0.0 mm 0.30 in7.6 mm
10:10 PM 50.0°F10.0°C 45.7°F7.6°C 85% 5.4 mph NNE8.7 kmh NNE 9.8 mph15.8 kmh 29.84 in1010.5 mb 0.00 in0.0 mm 0.00 in0.0 mm 0.30 in7.6 mm
10:20 PM 49.8°F9.9°C 45.8°F7.7°C 86% 6.6 mph NNE10.6 kmh NNE 9.8 mph15.8 kmh 29.83 in1010.2 mb 0.00 in0.0 mm 0.00 in0.0 mm 0.30 in7.6 mm
10:30 PM 49.6°F9.8°C 45.9°F7.7°C 87% 6.1 mph NE9.8 kmh NE 8.3 mph13.4 kmh 29.84 in1010.5 mb 0.00 in0.0 mm 0.00 in0.0 mm 0.30 in7.6 mm
10:40 PM 49.6°F9.8°C 46.2°F7.9°C 88% 6.9 mph NE11.1 kmh NE 9.8 mph15.8 kmh 29.82 in1009.8 mb 0.00 in0.0 mm 0.00 in0.0 mm 0.30 in7.6 mm
10:50 PM 49.6°F9.8°C 46.2°F7.9°C 88% 5.2 mph NNE8.4 kmh NNE 6.9 mph11.1 kmh 29.83 in1010.2 mb 0.00 in0.0 mm 0.00 in0.0 mm 0.30 in7.6 mm
11:00 PM 49.6°F9.8°C 46.2°F7.9°C 88% 5.7 mph NE9.2 kmh NE 6.9 mph11.1 kmh 29.83 in1010.2 mb 0.00 in0.0 mm 0.00 in0.0 mm 0.30 in7.6 mm
11:10 PM 49.6°F9.8°C 46.2°F7.9°C 88% 5.4 mph NE8.7 kmh NE 6.0 mph9.7 kmh 29.83 in1010.2 mb 0.00 in0.0 mm 0.00 in0.0 mm 0.30 in7.6 mm
11:20 PM 49.6°F9.8°C 46.5°F8.1°C 89% 5.8 mph NE9.3 kmh NE 7.6 mph12.2 kmh 29.82 in1009.8 mb 0.00 in0.0 mm 0.00 in0.0 mm 0.30 in7.6 mm
11:30 PM 49.6°F9.8°C 46.5°F8.1°C 89% 5.6 mph NW9.0 kmh NW 6.9 mph11.1 kmh 29.82 in1009.8 mb 0.00 in0.0 mm 0.00 in0.0 mm 0.30 in7.6 mm
11:40 PM 49.5°F9.7°C 46.4°F8.0°C 89% 7.6 mph NE12.2 kmh NE 12.1 mph19.5 kmh 29.81 in1009.5 mb 0.00 in0.0 mm 0.00 in0.0 mm 0.30 in7.6 mm
11:50 PM 49.5°F9.7°C 46.4°F8.0°C 89% 8.2 mph ENE13.2 kmh ENE 11.4 mph18.3 kmh 29.81 in1009.5 mb 0.00 in0.0 mm 0.00 in0.0 mm 0.30 in7.6 mm